METAR Data
IDs: Format: Raw Decoded Include TAF

Data at: 0855 UTC 19 Nov 2018

METAR for:LFQA (Reims/Prunay Aprt, --, FR)
Text:LFQA 190830Z AUTO VRB02KT CAVOK 02/M02 Q1016
Temperature: 2.0°C ( 36°F)
Dewpoint: -2.0°C ( 28°F) [RH = 75%]
Pressure (altimeter):30.00 inches Hg (1016.0 mb)
Winds:variable direction winds at 2 MPH (2 knots; 1.0 m/s)
Visibility:6 or more sm (10+ km)
Ceiling:ceiling and visibility are OK
Clouds:unknown

TAF for:LFQA (Reims/Prunay Aprt, --, FR)
Text:No data found